Time;durP1;ratioP1;P1;durP2;ratioP2;P2;SDS_P1;SDS_P2;PMS_P1;PMS_P2;Temp;Humidity;BMP_temperature;BMP_pressure;BME280_temperature;BME280_humidity;BME280_pressure;Samples;Min_cycle;Max_cycle;Signal;HPM_P1;HPM_P2
2022/12/28 00:04:28;;;;;;;9.20;4.60;;;;;;;1.75;81.31;100606.90;208627;1289;141177;-63
2022/12/28 00:09:33;;;;;;;5.10;4.60;;;;;;;1.68;81.42;100608.49;209578;1291;149579;-62
2022/12/28 00:14:39;;;;;;;7.40;4.70;;;;;;;1.61;81.76;100604.41;208884;1300;139609;-64
2022/12/28 00:19:45;;;;;;;7.90;4.80;;;;;;;1.56;81.48;100611.27;208519;1284;140013;-62
2022/12/28 00:24:50;;;;;;;6.90;5.20;;;;;;;1.50;81.22;100616.51;208448;1294;139098;-63
2022/12/28 00:29:54;;;;;;;21.30;11.30;;;;;;;1.41;81.54;100619.64;209595;1292;151750;-64
2022/12/28 00:34:59;;;;;;;58.80;30.60;;;;;;;1.37;81.97;100620.75;207767;1294;140963;-61
2022/12/28 00:40:02;;;;;;;14.30;9.90;;;;;;;1.33;82.20;100619.94;207854;1291;142384;-62
2022/12/28 00:45:06;;;;;;;11.70;6.90;;;;;;;1.28;81.80;100621.63;209492;1288;140372;-65
2022/12/28 00:50:11;;;;;;;12.60;6.50;;;;;;;1.27;81.80;100617.75;208437;1278;141074;-64
2022/12/28 00:55:14;;;;;;;9.40;6.20;;;;;;;1.26;81.87;100622.15;210604;1295;139506;-64
2022/12/28 01:00:19;;;;;;;14.70;6.80;;;;;;;1.21;81.84;100624.81;209835;1295;138276;-65
2022/12/28 01:05:23;;;;;;;14.10;7.30;;;;;;;1.15;81.80;100626.45;210371;1299;139586;-66
2022/12/28 01:10:29;;;;;;;10.90;6.80;;;;;;;1.16;81.84;100616.40;209358;1281;139634;-68
2022/12/28 01:15:33;;;;;;;8.60;5.80;;;;;;;1.16;82.06;100607.88;207814;1300;140047;-64
2022/12/28 01:20:38;;;;;;;10.80;5.50;;;;;;;1.14;82.49;100608.23;208345;1285;141779;-62
2022/12/28 01:25:42;;;;;;;8.90;6.20;;;;;;;1.15;82.95;100600.91;208960;1289;141171;-68
2022/12/28 01:30:44;;;;;;;10.20;6.10;;;;;;;1.21;82.59;100603.32;208959;1289;141525;-63
2022/12/28 01:35:47;;;;;;;10.60;6.90;;;;;;;1.20;82.64;100592.54;207943;1284;142269;-62
2022/12/28 01:40:51;;;;;;;10.90;7.60;;;;;;;1.19;82.84;100585.30;207744;1285;140149;-63
2022/12/28 01:45:53;;;;;;;15.30;7.60;;;;;;;1.06;82.12;100574.48;207795;1286;141965;-61
2022/12/28 01:50:56;;;;;;;14.80;7.10;;;;;;;0.98;82.22;100563.39;208996;1301;140259;-62
2022/12/28 01:55:58;;;;;;;11.00;8.20;;;;;;;0.91;82.41;100558.84;208965;1286;140427;-61
2022/12/28 02:01:03;;;;;;;14.50;8.50;;;;;;;0.84;82.51;100552.36;208598;1300;141040;-61
2022/12/28 02:06:10;;;;;;;20.20;8.30;;;;;;;0.77;82.59;100548.33;207879;1294;141376;-63
2022/12/28 02:11:17;;;;;;;14.60;8.80;;;;;;;0.70;81.98;100539.56;208363;1284;141013;-66
2022/12/28 02:16:21;;;;;;;16.70;8.20;;;;;;;0.59;82.34;100533.87;208624;1281;141456;-66
2022/12/28 02:21:43;;;;;;;18.60;8.40;;;;;;;0.48;82.63;100530.20;209194;1295;139515;-64
2022/12/28 02:27:08;;;;;;;18.20;9.10;;;;;;;0.42;82.50;100522.23;209730;1292;140249;-64
2022/12/28 02:32:13;;;;;;;16.80;9.70;;;;;;;0.34;82.35;100517.25;208092;1287;139796;-64
2022/12/28 02:37:23;;;;;;;14.50;8.90;;;;;;;0.25;82.54;100516.69;207902;1290;139726;-66
2022/12/28 02:42:29;;;;;;;18.20;10.80;;;;;;;0.19;83.07;100526.26;208674;1295;139943;-65
2022/12/28 02:53:15;;;;;;;20.60;8.90;;;;;;;0.09;82.91;100504.65;210452;1294;140031;-66
2022/12/28 02:58:55;;;;;;;12.90;8.70;;;;;;;0.11;83.11;100497.35;210565;1298;244564;-67
2022/12/28 03:04:19;;;;;;;16.20;9.00;;;;;;;0.13;83.46;100493.28;209841;1301;139158;-66
2022/12/28 03:09:34;;;;;;;13.50;9.30;;;;;;;0.13;83.14;100487.67;210244;1285;139486;-66
2022/12/28 03:14:44;;;;;;;18.30;11.20;;;;;;;0.15;83.34;100487.37;209019;1284;529450;-66
2022/12/28 03:31:08;;;;;;;15.10;9.10;;;;;;;0.13;83.95;100465.85;208148;1284;140550;-65
2022/12/28 03:36:29;;;;;;;17.40;10.40;;;;;;;0.17;83.79;100464.36;209162;1291;140383;-64
2022/12/28 03:41:41;;;;;;;15.10;9.50;;;;;;;0.15;83.88;100457.23;208900;1300;140163;-64
2022/12/28 03:46:54;;;;;;;17.20;9.90;;;;;;;0.12;84.18;100459.13;208474;1294;139589;-67
2022/12/28 03:52:00;;;;;;;19.10;9.60;;;;;;;0.12;84.12;100448.25;208021;1291;139398;-64
2022/12/28 03:57:03;;;;;;;14.90;10.20;;;;;;;0.15;84.00;100442.90;208914;1294;142234;-64
2022/12/28 04:02:06;;;;;;;16.60;8.70;;;;;;;0.15;84.15;100430.55;208626;1291;139984;-64
2022/12/28 04:07:09;;;;;;;14.30;8.80;;;;;;;0.14;84.21;100433.76;207882;1285;140535;-66
2022/12/28 04:12:13;;;;;;;16.10;8.30;;;;;;;0.11;84.31;100430.86;208662;1286;139799;-64
2022/12/28 04:17:16;;;;;;;10.50;8.20;;;;;;;0.15;84.46;100431.95;208013;1286;140289;-65
2022/12/28 04:22:21;;;;;;;15.00;7.80;;;;;;;0.19;84.54;100425.25;209741;1284;140889;-64
2022/12/28 04:27:24;;;;;;;13.70;9.00;;;;;;;0.19;84.45;100418.20;209324;1287;139202;-64
2022/12/28 04:32:27;;;;;;;15.30;8.20;;;;;;;0.22;84.90;100406.52;207898;1290;139723;-63
2022/12/28 04:37:36;;;;;;;16.10;8.80;;;;;;;0.25;84.67;100396.46;209903;1284;139673;-64
2022/12/28 04:42:39;;;;;;;21.10;8.40;;;;;;;0.32;84.38;100397.71;210180;1295;141247;-63
2022/12/28 04:47:42;;;;;;;13.10;6.80;;;;;;;0.35;84.70;100401.23;210454;1295;139362;-65
2022/12/28 04:52:45;;;;;;;16.20;8.10;;;;;;;0.37;84.59;100402.47;210710;1293;140762;-63
2022/12/28 04:57:49;;;;;;;20.00;7.70;;;;;;;0.45;85.05;100399.90;210399;1301;139340;-64
2022/12/28 05:02:53;;;;;;;15.40;7.80;;;;;;;0.59;84.56;100407.29;209175;1294;139695;-64
2022/12/28 05:08:01;;;;;;;14.00;7.50;;;;;;;0.70;84.84;100402.04;209598;1286;140436;-64
2022/12/28 05:13:05;;;;;;;19.00;8.30;;;;;;;0.80;84.79;100388.16;209248;1295;139733;-64
2022/12/28 05:18:08;;;;;;;15.00;7.20;;;;;;;0.81;84.77;100386.94;208431;1295;140534;-65
2022/12/28 05:23:12;;;;;;;14.30;6.50;;;;;;;0.83;84.44;100382.05;207861;1294;140670;-63
2022/12/28 05:28:16;;;;;;;12.60;7.00;;;;;;;0.84;84.34;100371.45;209532;1287;139925;-63
2022/12/28 05:33:19;;;;;;;13.10;7.30;;;;;;;0.74;84.27;100356.87;208760;1297;150867;-62
2022/12/28 05:38:23;;;;;;;11.40;6.20;;;;;;;0.61;84.39;100360.67;209391;1295;151016;-65
2022/12/28 05:43:29;;;;;;;8.70;5.10;;;;;;;0.60;84.30;100362.18;207902;1286;140416;-63
2022/12/28 05:48:34;;;;;;;9.20;6.70;;;;;;;0.55;84.12;100359.95;207877;1284;138984;-64
2022/12/28 05:53:38;;;;;;;8.90;5.60;;;;;;;0.49;84.50;100354.04;208625;1284;141017;-63
2022/12/28 05:58:41;;;;;;;8.80;6.30;;;;;;;0.45;84.59;100343.64;208877;1285;139769;-63
2022/12/28 06:03:45;;;;;;;12.10;7.00;;;;;;;0.47;84.35;100353.59;208480;1287;140383;-63
2022/12/28 06:08:49;;;;;;;16.00;8.10;;;;;;;0.45;84.34;100350.27;208166;1291;141475;-63
2022/12/28 06:13:53;;;;;;;12.90;6.50;;;;;;;0.33;84.56;100343.77;207930;1292;140596;-64
2022/12/28 06:18:55;;;;;;;10.50;6.40;;;;;;;0.27;84.71;100338.56;209196;1280;138897;-63
2022/12/28 06:23:59;;;;;;;7.50;6.10;;;;;;;0.31;84.64;100334.88;208774;1295;139984;-63
2022/12/28 06:29:03;;;;;;;11.60;6.30;;;;;;;0.29;84.59;100328.12;208793;1287;141090;-62
2022/12/28 06:34:08;;;;;;;9.40;5.50;;;;;;;0.26;84.69;100330.16;209126;1300;138993;-63
2022/12/28 06:39:14;;;;;;;9.00;6.10;;;;;;;0.23;84.81;100315.04;208120;1294;139102;-64
2022/12/28 06:44:16;;;;;;;9.00;7.50;;;;;;;0.28;85.15;100317.89;210581;1293;139940;-63
2022/12/28 06:49:20;;;;;;;9.90;6.70;;;;;;;0.31;84.66;100317.23;210659;1295;140621;-65
2022/12/28 06:54:24;;;;;;;9.80;5.70;;;;;;;0.34;84.94;100314.27;210129;1287;142123;-67
2022/12/28 06:59:27;;;;;;;11.00;7.40;;;;;;;0.42;84.51;100308.11;208448;1281;150372;-66
2022/12/28 07:04:30;;;;;;;11.00;6.40;;;;;;;0.43;84.87;100303.04;209409;1294;139499;-66
2022/12/28 07:09:32;;;;;;;9.60;5.80;;;;;;;0.46;84.79;100307.03;209648;1285;139520;-65
2022/12/28 07:14:34;;;;;;;19.70;7.60;;;;;;;0.50;84.78;100303.23;208431;1287;139742;-66
2022/12/28 07:19:38;;;;;;;8.60;6.00;;;;;;;0.60;84.91;100294.52;208633;1293;142011;-65
2022/12/28 07:24:41;;;;;;;11.70;6.90;;;;;;;0.63;84.88;100290.13;208610;1294;139908;-66
2022/12/28 07:29:43;;;;;;;9.50;7.70;;;;;;;0.66;84.32;100283.55;208318;1288;140535;-64
2022/12/28 07:34:46;;;;;;;12.30;7.90;;;;;;;0.72;84.87;100274.07;208312;1294;139425;-64
2022/12/28 07:39:50;;;;;;;17.20;9.00;;;;;;;0.74;84.78;100260.92;207961;1287;139508;-64
2022/12/28 07:44:54;;;;;;;11.90;7.10;;;;;;;0.80;84.64;100260.23;208637;1293;139739;-65
2022/12/28 07:49:56;;;;;;;9.10;5.10;;;;;;;0.90;84.78;100266.49;207756;1295;140438;-65
2022/12/28 07:55:01;;;;;;;15.00;8.00;;;;;;;0.97;84.47;100262.80;209122;1294;138981;-64
2022/12/28 08:00:06;;;;;;;12.70;6.20;;;;;;;1.09;84.67;100262.64;207561;1294;140522;-63
2022/12/28 08:05:08;;;;;;;11.70;6.90;;;;;;;1.16;84.67;100272.41;208007;1285;140978;-65
2022/12/28 08:10:12;;;;;;;56.80;28.20;;;;;;;1.26;84.63;100263.59;208174;1286;139353;-62
2022/12/28 08:15:14;;;;;;;31.90;23.40;;;;;;;1.37;84.39;100256.70;208816;1294;141701;-65
2022/12/28 08:20:17;;;;;;;14.30;10.30;;;;;;;1.47;84.32;100254.39;207945;1288;141485;-62
2022/12/28 08:25:22;;;;;;;10.30;7.20;;;;;;;1.59;84.15;100248.17;208010;1294;153409;-67
2022/12/28 08:30:25;;;;;;;13.20;6.80;;;;;;;1.77;84.07;100247.86;207867;1294;141289;-64
2022/12/28 08:35:28;;;;;;;9.60;6.90;;;;;;;1.91;84.08;100250.00;209850;1291;140590;-66
2022/12/28 08:40:32;;;;;;;8.90;6.00;;;;;;;2.03;83.97;100250.52;210324;1294;139913;-66
2022/12/28 08:45:35;;;;;;;9.30;5.80;;;;;;;2.18;83.88;100254.23;210018;1288;139414;-65
2022/12/28 08:50:38;;;;;;;9.60;6.50;;;;;;;2.38;83.38;100254.67;210269;1294;141084;-66
2022/12/28 08:55:41;;;;;;;11.90;8.20;;;;;;;2.53;82.96;100259.29;209954;1294;140024;-63
2022/12/28 09:00:44;;;;;;;9.00;6.10;;;;;;;2.62;82.71;100261.92;210152;1295;140827;-65
2022/12/28 09:05:48;;;;;;;10.80;6.00;;;;;;;2.72;82.73;100261.41;210407;1291;139935;-65
2022/12/28 09:11:05;;;;;;;11.10;6.00;;;;;;;2.82;82.34;100255.77;209608;1278;140886;-65
2022/12/28 09:16:14;;;;;;;14.50;6.00;;;;;;;2.90;82.31;100259.79;208816;1294;140726;-64
2022/12/28 09:21:20;;;;;;;7.70;5.70;;;;;;;2.98;82.24;100264.93;209660;1288;139539;-65
2022/12/28 09:26:30;;;;;;;9.40;4.80;;;;;;;3.02;81.95;100258.05;208345;1281;139309;-68
2022/12/28 09:31:39;;;;;;;9.60;4.90;;;;;;;3.09;81.53;100243.09;208103;1278;139857;-63
2022/12/28 09:36:43;;;;;;;9.80;5.50;;;;;;;3.06;81.38;100226.14;208195;1286;139280;-64
2022/12/28 09:41:59;;;;;;;11.50;6.10;;;;;;;3.03;81.13;100223.30;207606;1288;141117;-67
2022/12/28 09:47:11;;;;;;;7.20;5.40;;;;;;;3.04;81.19;100209.86;208395;1294;139969;-66
2022/12/28 09:52:29;;;;;;;14.60;5.90;;;;;;;3.01;81.17;100194.46;207740;1284;138921;-62
2022/12/28 09:57:41;;;;;;;8.90;7.80;;;;;;;3.01;80.85;100166.65;208283;1291;140465;-62
2022/12/28 10:02:56;;;;;;;11.20;5.70;;;;;;;3.10;81.08;100162.66;208949;1285;140013;-62
2022/12/28 10:08:01;;;;;;;13.30;5.50;;;;;;;3.11;80.65;100154.02;208357;1286;139518;-63
2022/12/28 10:13:22;;;;;;;8.60;5.00;;;;;;;3.14;80.65;100151.39;207670;1288;140003;-62
2022/12/28 10:18:47;;;;;;;6.40;5.20;;;;;;;3.21;80.49;100136.69;208094;1291;218222;-62
2022/12/28 10:23:53;;;;;;;5.70;4.00;;;;;;;3.27;80.52;100129.54;207648;1278;139904;-62
2022/12/28 10:29:20;;;;;;;7.80;4.80;;;;;;;3.29;80.26;100128.79;210037;1286;143452;-66
2022/12/28 10:34:24;;;;;;;6.00;5.20;;;;;;;3.38;80.34;100122.57;208573;1287;140769;-64
2022/12/28 10:39:30;;;;;;;9.30;5.60;;;;;;;3.50;80.33;100119.48;210082;1289;139669;-67
2022/12/28 10:44:34;;;;;;;9.60;5.00;;;;;;;3.55;80.11;100107.73;210322;1294;139062;-65
2022/12/28 10:49:50;;;;;;;8.80;5.00;;;;;;;3.70;79.90;100110.08;210385;1286;141648;-61
2022/12/28 10:55:28;;;;;;;4.90;3.40;;;;;;;3.89;79.61;100113.83;209645;1301;244635;-63
2022/12/28 11:00:32;;;;;;;7.90;5.70;;;;;;;3.95;79.31;100095.14;208820;1278;139296;-64
2022/12/28 11:05:36;;;;;;;7.60;4.60;;;;;;;4.01;79.29;100078.13;208626;1285;139897;-63
2022/12/28 11:10:39;;;;;;;9.20;5.70;;;;;;;4.11;79.05;100070.20;208969;1294;141853;-66
2022/12/28 11:15:43;;;;;;;7.10;4.90;;;;;;;4.14;78.96;100058.72;208772;1285;141248;-63
2022/12/28 11:20:51;;;;;;;9.20;5.50;;;;;;;4.16;78.88;100048.23;207985;1287;139565;-65
2022/12/28 11:25:58;;;;;;;6.70;5.10;;;;;;;4.14;78.46;100033.02;208622;1286;140681;-64
2022/12/28 11:31:03;;;;;;;8.40;5.80;;;;;;;4.07;78.75;100019.98;207951;1294;139827;-64
2022/12/28 11:36:23;;;;;;;8.50;4.70;;;;;;;4.03;78.74;100016.41;209038;1293;220862;-65
2022/12/28 11:41:29;;;;;;;12.80;5.10;;;;;;;3.97;78.62;100009.38;208295;1287;140034;-63
2022/12/28 11:46:39;;;;;;;12.40;5.30;;;;;;;3.96;78.38;99990.25;209224;1292;140134;-63
2022/12/28 11:51:43;;;;;;;8.40;5.20;;;;;;;3.92;78.43;99980.35;207622;1294;140652;-65
2022/12/28 11:56:46;;;;;;;10.30;5.40;;;;;;;3.97;78.64;99967.50;207878;1293;139218;-65
2022/12/28 12:02:01;;;;;;;14.00;6.90;;;;;;;4.03;78.42;99951.11;209018;1287;139603;-63
2022/12/28 12:07:04;;;;;;;5.60;3.80;;;;;;;4.19;78.46;99944.64;208585;1287;140198;-63
2022/12/28 12:12:14;;;;;;;8.20;4.60;;;;;;;4.25;78.17;99940.48;207682;1278;141359;-65
2022/12/28 12:17:31;;;;;;;9.60;4.90;;;;;;;4.30;78.16;99929.73;208990;1287;140403;-63
2022/12/28 12:22:51;;;;;;;8.90;4.70;;;;;;;4.33;78.04;99927.33;209930;1294;139084;-61
2022/12/28 12:28:02;;;;;;;8.00;4.90;;;;;;;4.40;77.80;99919.13;207678;1293;140800;-60
2022/12/28 12:33:13;;;;;;;8.70;5.80;;;;;;;4.42;77.88;99906.63;209590;1294;139714;-62
2022/12/28 12:38:51;;;;;;;6.30;4.00;;;;;;;4.40;77.61;99896.05;210414;1295;139375;-62
2022/12/28 12:44:15;;;;;;;11.70;5.30;;;;;;;4.44;77.54;99885.65;210531;1281;141768;-64
2022/12/28 12:49:43;;;;;;;5.40;3.70;;;;;;;4.52;77.38;99880.52;210493;1295;139786;-67
2022/12/28 12:55:14;;;;;;;7.60;4.10;;;;;;;4.56;77.25;99878.86;210468;1295;139950;-63
2022/12/28 13:00:21;;;;;;;6.00;3.80;;;;;;;4.57;77.17;99863.42;209750;1288;139815;-62
2022/12/28 13:05:27;;;;;;;9.00;4.50;;;;;;;4.56;76.81;99862.24;210195;1285;139677;-63
2022/12/28 13:10:43;;;;;;;6.80;4.50;;;;;;;4.54;76.90;99866.05;207938;1294;140935;-67
2022/12/28 13:15:46;;;;;;;5.70;2.70;;;;;;;4.53;76.98;99861.61;208712;1284;139144;-64
2022/12/28 13:20:58;;;;;;;6.00;3.80;;;;;;;4.51;76.76;99851.98;209048;1278;139681;-63
2022/12/28 13:26:02;;;;;;;8.70;5.30;;;;;;;4.55;76.55;99851.63;207457;1293;140362;-65
2022/12/28 13:31:33;;;;;;;5.20;3.70;;;;;;;4.54;76.66;99840.45;207957;1280;142883;-66
2022/12/28 13:36:47;;;;;;;5.10;3.50;;;;;;;4.51;76.67;99840.68;208693;1295;139666;-66
2022/12/28 13:41:55;;;;;;;12.50;4.00;;;;;;;4.49;76.86;99839.23;207855;1287;138593;-65
2022/12/28 13:47:07;;;;;;;5.10;3.50;;;;;;;4.56;76.52;99842.22;209180;1294;140163;-66
2022/12/28 13:52:15;;;;;;;10.50;6.30;;;;;;;4.52;76.56;99829.02;208569;1278;139156;-67
2022/12/28 13:57:21;;;;;;;12.60;5.40;;;;;;;4.46;76.25;99814.80;208555;1288;141099;-66
2022/12/28 14:02:46;;;;;;;11.60;4.60;;;;;;;4.50;76.41;99809.92;208009;1288;139868;-65
2022/12/28 14:07:51;;;;;;;7.00;4.10;;;;;;;4.55;76.54;99805.90;209073;1288;139930;-64
2022/12/28 14:12:55;;;;;;;7.90;4.50;;;;;;;4.53;76.73;99804.79;209243;1286;139874;-65
2022/12/28 14:17:57;;;;;;;3.90;3.00;;;;;;;4.47;76.53;99804.79;209046;1294;140706;-62
2022/12/28 14:23:20;;;;;;;6.40;3.60;;;;;;;4.40;76.35;99793.90;209569;1294;141348;-63
2022/12/28 14:28:44;;;;;;;9.20;4.00;;;;;;;4.32;76.04;99775.37;210075;1287;139922;-63
2022/12/28 14:33:59;;;;;;;8.00;4.20;;;;;;;4.18;76.14;99769.76;210560;1294;139683;-62
2022/12/28 14:39:04;;;;;;;5.80;4.70;;;;;;;4.08;76.41;99771.63;210491;1294;139362;-62
2022/12/28 14:44:22;;;;;;;7.90;4.60;;;;;;;4.03;76.37;99769.35;210432;1294;141116;-63
2022/12/28 14:49:28;;;;;;;7.00;4.20;;;;;;;4.11;76.58;99772.02;209209;1288;140058;-63
2022/12/28 14:54:33;;;;;;;10.80;5.20;;;;;;;4.14;76.78;99765.19;207614;1295;140003;-65
2022/12/28 14:59:38;;;;;;;6.90;4.10;;;;;;;4.12;76.83;99770.45;209802;1288;139824;-67
2022/12/28 15:04:41;;;;;;;12.20;5.40;;;;;;;4.10;76.48;99774.08;207898;1287;160605;-65
2022/12/28 15:09:44;;;;;;;8.20;4.70;;;;;;;4.07;76.44;99771.30;208382;1293;141107;-62
2022/12/28 15:14:48;;;;;;;9.80;4.60;;;;;;;4.00;76.77;99764.59;207849;1288;409257;-62
2022/12/28 15:19:50;;;;;;;7.60;5.00;;;;;;;3.91;76.71;99759.66;208191;1288;139029;-63
2022/12/28 15:24:52;;;;;;;7.50;5.30;;;;;;;3.88;77.05;99763.29;208015;1285;140920;-61
2022/12/28 15:29:55;;;;;;;7.50;4.60;;;;;;;3.90;76.91;99752.88;209628;1288;139771;-66
2022/12/28 15:35:08;;;;;;;5.80;3.20;;;;;;;3.89;77.18;99751.78;209108;1287;139050;-65
2022/12/28 15:40:11;;;;;;;8.10;4.30;;;;;;;3.89;77.00;99753.00;208860;1294;140400;-64
2022/12/28 15:45:15;;;;;;;11.30;3.80;;;;;;;3.94;77.08;99763.96;207878;1286;140263;-63
2022/12/28 15:50:17;;;;;;;5.90;3.70;;;;;;;3.98;76.97;99759.77;208942;1287;141079;-66
2022/12/28 15:55:19;;;;;;;280.30;122.00;;;;;;;4.00;77.19;99748.56;208420;1285;139765;-63
2022/12/28 16:00:21;;;;;;;189.00;96.90;;;;;;;4.01;77.27;99745.64;208115;1287;141008;-66
2022/12/28 16:05:23;;;;;;;15.90;14.20;;;;;;;4.09;76.96;99741.33;209849;1287;140650;-63
2022/12/28 16:10:25;;;;;;;11.20;5.40;;;;;;;4.14;76.90;99742.83;210279;1285;141128;-65
2022/12/28 16:15:28;;;;;;;7.00;5.40;;;;;;;4.17;77.02;99748.29;210145;1294;139380;-63
2022/12/28 16:20:31;;;;;;;9.20;5.80;;;;;;;4.20;77.00;99747.37;210569;1294;139786;-64
2022/12/28 16:25:33;;;;;;;9.60;4.60;;;;;;;4.28;76.85;99756.02;210301;1294;140689;-66
2022/12/28 16:30:47;;;;;;;6.60;4.40;;;;;;;4.31;76.60;99767.56;210548;1295;138907;-63
2022/12/28 16:35:50;;;;;;;9.30;4.60;;;;;;;4.32;76.59;99772.81;210304;1295;139001;-66
2022/12/28 16:41:01;;;;;;;7.50;4.50;;;;;;;4.38;76.63;99772.89;209499;1287;139653;-64
2022/12/28 16:46:08;;;;;;;10.20;4.90;;;;;;;4.44;76.46;99769.61;208054;1288;139863;-63
2022/12/28 16:51:11;;;;;;;4.90;3.60;;;;;;;4.46;76.59;99768.48;208235;1294;139983;-63
2022/12/28 16:56:13;;;;;;;7.50;5.00;;;;;;;4.44;76.57;99764.48;209336;1295;141790;-65
2022/12/28 17:01:15;;;;;;;7.40;4.50;;;;;;;4.43;76.73;99759.20;208143;1293;140105;-62
2022/12/28 17:06:18;;;;;;;11.70;4.70;;;;;;;4.45;76.53;99763.89;208799;1291;140189;-65
2022/12/28 17:11:20;;;;;;;9.60;5.10;;;;;;;4.49;76.59;99765.14;208020;1289;142096;-64
2022/12/28 17:16:24;;;;;;;14.40;10.80;;;;;;;4.47;76.67;99772.58;207883;1278;140622;-66
2022/12/28 17:21:28;;;;;;;10.20;7.10;;;;;;;4.48;76.76;99767.95;208395;1291;140632;-65
2022/12/28 17:26:31;;;;;;;7.50;5.30;;;;;;;4.44;76.45;99762.05;208056;1295;139841;-66
2022/12/28 17:31:34;;;;;;;9.30;4.90;;;;;;;4.42;76.34;99756.02;208303;1289;142014;-67
2022/12/28 17:36:36;;;;;;;4.40;3.00;;;;;;;4.44;76.38;99753.08;207866;1293;139927;-66
2022/12/28 17:41:42;;;;;;;14.20;5.70;;;;;;;4.43;76.64;99745.67;208408;1287;140217;-65
2022/12/28 17:46:45;;;;;;;11.70;5.90;;;;;;;4.42;76.71;99748.04;207851;1286;139542;-63
2022/12/28 17:51:47;;;;;;;10.30;6.40;;;;;;;4.40;76.73;99754.64;209385;1289;139870;-66
2022/12/28 17:56:49;;;;;;;11.60;5.40;;;;;;;4.42;76.60;99751.48;209561;1298;139944;-66
2022/12/28 18:01:52;;;;;;;14.10;7.00;;;;;;;4.47;76.69;99754.11;208913;1285;140627;-66
2022/12/28 18:06:55;;;;;;;8.40;5.10;;;;;;;4.52;76.78;99757.03;208890;1294;140212;-65
2022/12/28 18:11:57;;;;;;;7.60;5.50;;;;;;;4.53;76.76;99752.48;209926;1281;139400;-68
2022/12/28 18:17:01;;;;;;;18.40;9.50;;;;;;;4.54;76.89;99749.16;210479;1295;140881;-67
2022/12/28 18:22:04;;;;;;;18.30;10.50;;;;;;;4.61;76.79;99754.52;210539;1288;139965;-66
2022/12/28 18:27:06;;;;;;;15.50;7.70;;;;;;;4.64;76.72;99752.20;210594;1295;139816;-64
2022/12/28 18:32:08;;;;;;;13.80;9.10;;;;;;;4.66;76.80;99745.46;210046;1293;139285;-67
2022/12/28 18:37:12;;;;;;;9.80;7.30;;;;;;;4.69;76.79;99739.10;210500;1294;139739;-68
2022/12/28 18:42:18;;;;;;;13.80;6.70;;;;;;;4.76;76.35;99738.62;207905;1284;139552;-67
2022/12/28 18:47:22;;;;;;;11.00;6.40;;;;;;;4.78;76.67;99739.77;209317;1293;140841;-69
2022/12/28 18:52:25;;;;;;;9.70;6.60;;;;;;;4.75;76.84;99733.41;207922;1285;141116;-70
2022/12/28 18:57:28;;;;;;;10.10;5.20;;;;;;;4.72;76.80;99729.57;207830;1285;140212;-66
2022/12/28 19:02:31;;;;;;;10.00;6.60;;;;;;;4.72;76.49;99730.50;209517;1288;139797;-64
2022/12/28 19:07:34;;;;;;;12.00;6.00;;;;;;;4.75;76.37;99728.17;208416;1285;140361;-66
2022/12/28 19:12:38;;;;;;;11.90;6.90;;;;;;;4.76;76.67;99720.29;207621;1294;140471;-63
2022/12/28 19:17:43;;;;;;;8.50;6.00;;;;;;;4.73;76.58;99716.09;208797;1295;140096;-67
2022/12/28 19:22:46;;;;;;;12.60;7.30;;;;;;;4.66;76.92;99716.55;207960;1294;140531;-63
2022/12/28 19:27:55;;;;;;;16.90;8.50;;;;;;;4.66;76.89;99717.52;207525;1281;140963;-65
2022/12/28 19:33:00;;;;;;;15.50;7.80;;;;;;;4.70;76.83;99719.45;207977;1290;149423;-66
2022/12/28 19:38:03;;;;;;;13.40;8.90;;;;;;;4.69;76.70;99716.92;209414;1293;138994;-67
2022/12/28 19:43:05;;;;;;;16.60;7.10;;;;;;;4.67;77.07;99718.30;207517;1284;140188;-69
2022/12/28 19:48:08;;;;;;;16.60;7.80;;;;;;;4.64;76.85;99715.52;207671;1289;139997;-66
2022/12/28 19:53:12;;;;;;;14.70;8.90;;;;;;;4.65;76.89;99720.98;209556;1294;139614;-67
2022/12/28 19:58:18;;;;;;;13.70;8.60;;;;;;;4.69;76.76;99725.38;209126;1295;140779;-68
2022/12/28 20:03:24;;;;;;;8.70;5.60;;;;;;;4.69;76.98;99722.94;210128;1301;141598;-65
2022/12/28 20:08:27;;;;;;;14.40;7.90;;;;;;;4.67;76.99;99719.77;210177;1294;139049;-65
2022/12/28 20:13:31;;;;;;;15.10;8.30;;;;;;;4.70;76.91;99711.85;210208;1281;139798;-66
2022/12/28 20:18:35;;;;;;;12.10;5.90;;;;;;;4.78;76.94;99706.29;210406;1295;140521;-67
2022/12/28 20:23:37;;;;;;;12.70;7.50;;;;;;;4.82;76.76;99696.59;210231;1292;140675;-66
2022/12/28 20:28:41;;;;;;;11.30;6.50;;;;;;;4.85;76.98;99699.38;210503;1296;142606;-67
2022/12/28 20:33:44;;;;;;;11.60;6.50;;;;;;;4.88;77.11;99695.99;209701;1299;142514;-63
2022/12/28 20:38:49;;;;;;;13.90;6.70;;;;;;;4.88;76.52;99689.71;209266;1289;141760;-64
2022/12/28 20:43:52;;;;;;;11.40;7.20;;;;;;;4.88;76.42;99689.13;209464;1292;139976;-65
2022/12/28 20:48:57;;;;;;;11.40;6.60;;;;;;;4.82;76.43;99693.79;209395;1285;140020;-67
2022/12/28 20:54:03;;;;;;;8.60;6.40;;;;;;;4.81;76.74;99685.61;207683;1293;142745;-64
2022/12/28 20:59:09;;;;;;;7.00;4.90;;;;;;;4.79;76.88;99680.45;209454;1285;140452;-62
2022/12/28 21:04:13;;;;;;;5.70;4.50;;;;;;;4.77;76.58;99678.48;209224;1289;224380;-63
2022/12/28 21:09:17;;;;;;;16.20;7.70;;;;;;;4.73;76.74;99673.48;209169;1295;139890;-61
2022/12/28 21:14:19;;;;;;;13.40;7.70;;;;;;;4.71;76.53;99665.06;208749;1291;139249;-67
2022/12/28 21:19:22;;;;;;;9.80;5.50;;;;;;;4.73;76.56;99665.48;208490;1284;140267;-64
2022/12/28 21:24:26;;;;;;;10.50;5.50;;;;;;;4.75;76.57;99658.74;208303;1292;140210;-61
2022/12/28 21:29:29;;;;;;;7.50;6.40;;;;;;;4.71;76.64;99657.70;208356;1284;140226;-67
2022/12/28 21:34:33;;;;;;;15.60;6.70;;;;;;;4.68;76.72;99659.20;207805;1300;139347;-62
2022/12/28 21:39:36;;;;;;;10.50;5.50;;;;;;;4.67;76.53;99660.01;208905;1291;139590;-67
2022/12/28 21:44:39;;;;;;;8.50;6.10;;;;;;;4.73;76.67;99647.77;209079;1288;140095;-64
2022/12/28 21:49:42;;;;;;;9.50;5.90;;;;;;;4.72;76.62;99640.16;208902;1296;142411;-63
2022/12/28 21:54:45;;;;;;;11.40;6.50;;;;;;;4.69;76.45;99637.42;209014;1292;139948;-64
2022/12/28 21:59:51;;;;;;;13.60;7.00;;;;;;;4.72;76.51;99643.33;209328;1293;139247;-62
2022/12/28 22:15:51;;;;;;;13.10;7.00;;;;;;;4.67;76.41;99629.87;210486;1300;141121;-65
2022/12/28 22:20:53;;;;;;;13.10;6.60;;;;;;;4.71;76.36;99626.22;210711;1294;140196;-66
2022/12/28 22:25:56;;;;;;;10.40;5.70;;;;;;;4.76;76.37;99624.45;208409;1289;139835;-63
2022/12/28 22:31:05;;;;;;;7.70;5.40;;;;;;;4.78;76.40;99622.67;209012;1295;140025;-67
2022/12/28 22:36:15;;;;;;;11.20;6.60;;;;;;;4.75;76.48;99625.63;209882;1297;139600;-63
2022/12/28 22:41:17;;;;;;;12.90;6.80;;;;;;;4.74;76.43;99624.05;209740;1300;139768;-64
2022/12/28 22:46:21;;;;;;;9.20;6.40;;;;;;;4.72;76.37;99621.51;209290;1292;140094;-65
2022/12/28 22:51:23;;;;;;;7.20;5.40;;;;;;;4.75;76.27;99612.51;208244;1294;141367;-63
2022/12/28 22:56:26;;;;;;;8.60;6.10;;;;;;;4.73;75.95;99594.10;207731;1285;139752;-65
2022/12/28 23:01:29;;;;;;;10.00;6.30;;;;;;;4.68;76.40;99587.98;209088;1287;139244;-66
2022/12/28 23:06:34;;;;;;;15.40;6.50;;;;;;;4.65;76.10;99586.15;208274;1295;141343;-64
2022/12/28 23:11:40;;;;;;;13.40;6.80;;;;;;;4.67;76.31;99579.05;208800;1281;139944;-66
2022/12/28 23:16:43;;;;;;;10.90;7.10;;;;;;;4.66;76.37;99578.84;208937;1284;139737;-66
2022/12/28 23:27:21;;;;;;;9.10;5.60;;;;;;;4.65;76.32;99581.31;208520;1294;138996;-64
2022/12/28 23:32:25;;;;;;;10.10;5.60;;;;;;;4.69;76.46;99579.27;207834;1296;246557;-63
2022/12/28 23:37:28;;;;;;;8.90;5.80;;;;;;;4.67;76.14;99574.09;208540;1295;141304;-64
2022/12/28 23:42:31;;;;;;;9.50;5.00;;;;;;;4.65;76.45;99570.27;207882;1294;139517;-63
2022/12/28 23:47:35;;;;;;;6.20;5.10;;;;;;;4.63;76.32;99566.48;209854;1294;140156;-64
2022/12/28 23:52:42;;;;;;;6.80;4.90;;;;;;;4.64;76.31;99560.92;207974;1294;139466;-64
2022/12/28 23:57:45;;;;;;;9.00;6.60;;;;;;;4.68;76.21;99556.91;210010;1295;139939;-64
